Time;durP1;ratioP1;P1;durP2;ratioP2;P2;SDS_P1;SDS_P2;PMS_P1;PMS_P2;Temp;Humidity;BMP_temperature;BMP_pressure;BME280_temperature;BME280_humidity;BME280_pressure;Samples;Min_cycle;Max_cycle;Signal;HPM_P1;HPM_P2
2021/06/03 00:00:06;;;;;;;5.47;2.20;;;19.20;66.70;;;;;;5010688;28;20036;-59
2021/06/03 00:02:31;;;;;;;8.95;2.40;;;19.20;66.80;;;;;;5000409;28;20042;-60
2021/06/03 00:04:57;;;;;;;3.35;1.98;;;19.20;67.40;;;;;;5006814;28;20018;-57
2021/06/03 00:07:23;;;;;;;4.90;2.40;;;19.10;68.60;;;;;;5006535;28;20037;-58
2021/06/03 00:09:48;;;;;;;2.50;1.88;;;19.00;71.00;;;;;;5009031;28;20499;-59
2021/06/03 00:12:14;;;;;;;3.45;2.42;;;18.80;72.90;;;;;;5011041;28;20068;-59
2021/06/03 00:14:39;;;;;;;4.72;2.00;;;18.80;72.20;;;;;;5010756;28;20622;-57
2021/06/03 00:17:06;;;;;;;2.70;2.08;;;18.70;72.80;;;;;;5005607;28;20060;-59
2021/06/03 00:19:32;;;;;;;5.50;2.60;;;18.70;73.90;;;;;;5006205;28;20025;-59
2021/06/03 00:21:57;;;;;;;2.65;1.88;;;18.60;77.00;;;;;;5005297;28;20041;-58
2021/06/03 00:24:23;;;;;;;4.90;2.13;;;18.50;77.70;;;;;;5005139;28;20041;-60
2021/06/03 00:26:49;;;;;;;4.50;2.05;;;18.50;81.80;;;;;;5008679;28;20040;-59
2021/06/03 00:29:15;;;;;;;3.92;2.25;;;18.40;81.00;;;;;;5012452;28;20021;-59
2021/06/03 00:31:41;;;;;;;2.88;2.20;;;18.40;81.60;;;;;;5009815;28;20465;-60
2021/06/03 00:34:07;;;;;;;6.55;2.25;;;18.40;84.90;;;;;;5008600;28;20227;-59
2021/06/03 00:36:33;;;;;;;3.53;2.47;;;18.40;85.70;;;;;;5010322;28;20049;-58
2021/06/03 00:39:03;;;;;;;2.45;1.70;;;18.40;88.80;;;;;;5008556;28;20033;-58
2021/06/03 00:41:29;;;;;;;2.88;2.10;;;18.30;90.00;;;;;;5011467;28;20034;-58
2021/06/03 00:43:55;;;;;;;3.22;2.35;;;18.30;89.60;;;;;;4999075;28;20408;-60
2021/06/03 00:46:21;;;;;;;3.20;1.85;;;18.20;91.60;;;;;;5001888;28;20026;-58
2021/06/03 00:48:47;;;;;;;2.28;2.08;;;18.20;91.00;;;;;;5009006;28;20074;-58
2021/06/03 00:51:12;;;;;;;5.78;2.38;;;18.30;91.80;;;;;;5009942;28;20557;-60
2021/06/03 00:53:43;;;;;;;6.43;2.10;;;18.30;90.70;;;;;;5010162;28;20045;-60
2021/06/03 00:56:08;;;;;;;4.95;2.05;;;18.30;91.30;;;;;;5007963;28;20026;-58
2021/06/03 00:58:35;;;;;;;3.25;2.10;;;18.30;91.40;;;;;;5009645;28;20030;-56
2021/06/03 01:01:01;;;;;;;3.03;1.98;;;18.30;92.10;;;;;;5009302;28;20018;-60
2021/06/03 01:03:28;;;;;;;4.13;2.20;;;18.20;93.20;;;;;;5008944;28;20037;-59
2021/06/03 01:06:08;;;;;;;5.82;2.30;;;18.10;94.40;;;;;;5007385;28;20026;-58
2021/06/03 01:08:46;;;;;;;8.35;3.28;;;18.00;94.70;;;;;;5005585;28;20050;-58
2021/06/03 01:11:21;;;;;;;3.75;2.40;;;18.10;93.80;;;;;;5000043;28;20391;-59
2021/06/03 01:14:12;;;;;;;4.57;2.30;;;18.00;94.30;;;;;;4994594;28;20125;-61
2021/06/03 01:16:38;;;;;;;3.55;1.90;;;18.00;94.50;;;;;;4997241;28;20026;-58
2021/06/03 01:19:10;;;;;;;4.32;2.13;;;18.10;93.90;;;;;;4998064;28;20120;-60
2021/06/03 01:21:57;;;;;;;6.00;2.42;;;18.10;94.00;;;;;;5003403;28;20022;-57
2021/06/03 01:24:32;;;;;;;4.63;2.67;;;18.10;94.20;;;;;;4995478;28;20038;-58
2021/06/03 01:27:01;;;;;;;3.97;2.65;;;18.10;94.20;;;;;;5003001;28;20091;-56
2021/06/03 01:29:32;;;;;;;2.83;2.13;;;18.00;95.30;;;;;;5002777;28;20115;-57
2021/06/03 01:31:58;;;;;;;3.25;2.30;;;18.00;95.00;;;;;;5013096;28;20108;-57
2021/06/03 01:34:27;;;;;;;10.25;2.15;;;17.90;96.60;;;;;;5019262;28;20443;-59
2021/06/03 01:36:53;;;;;;;5.35;3.15;;;17.90;95.20;;;;;;4996969;28;20025;-60
2021/06/03 01:39:20;;;;;;;2.80;1.90;;;17.90;97.00;;;;;;4998676;28;20030;-58
2021/06/03 01:41:46;;;;;;;3.97;2.22;;;17.80;96.60;;;;;;5011451;28;20030;-59
2021/06/03 01:44:12;;;;;;;3.72;1.98;;;17.80;96.80;;;;;;4995721;28;20059;-59
2021/06/03 01:46:38;;;;;;;3.85;2.30;;;17.80;96.10;;;;;;4997256;28;20030;-59
2021/06/03 01:49:05;;;;;;;8.07;2.60;;;17.80;96.20;;;;;;5012758;28;20037;-58
2021/06/03 01:51:31;;;;;;;4.05;2.00;;;17.80;97.10;;;;;;5015256;28;20030;-59
2021/06/03 01:53:57;;;;;;;3.00;2.13;;;17.70;97.60;;;;;;5013488;28;20036;-58
2021/06/03 01:56:22;;;;;;;5.53;2.40;;;17.70;97.90;;;;;;5009818;28;20507;-59
2021/06/03 01:58:48;;;;;;;7.05;2.63;;;17.70;97.30;;;;;;5010354;28;20506;-60
2021/06/03 02:01:15;;;;;;;3.33;1.98;;;17.70;97.90;;;;;;5005106;28;20018;-57
2021/06/03 02:03:40;;;;;;;2.85;1.80;;;17.70;97.50;;;;;;5009223;28;20038;-59
2021/06/03 02:06:06;;;;;;;4.43;2.20;;;17.60;97.40;;;;;;5016140;28;20030;-59
2021/06/03 02:08:33;;;;;;;5.00;2.30;;;17.60;98.00;;;;;;5011589;28;20215;-56
2021/06/03 02:10:59;;;;;;;2.40;1.88;;;17.50;98.60;;;;;;5000843;28;20030;-60
2021/06/03 02:13:39;;;;;;;7.65;2.20;;;17.50;99.40;;;;;;5017229;28;20117;-58
2021/06/03 02:16:22;;;;;;;5.68;2.70;;;17.40;99.90;;;;;;5003885;28;20039;-60
2021/06/03 02:18:56;;;;;;;6.38;2.08;;;17.30;99.90;;;;;;5013592;28;20033;-55
2021/06/03 02:21:22;;;;;;;10.57;2.22;;;17.30;99.70;;;;;;5006512;28;20107;-60
2021/06/03 02:23:49;;;;;;;5.50;1.92;;;17.30;99.10;;;;;;5021281;28;20030;-59
2021/06/03 02:26:16;;;;;;;2.72;1.92;;;17.30;99.90;;;;;;5015041;28;20724;-61
2021/06/03 02:28:43;;;;;;;3.72;1.92;;;17.30;99.50;;;;;;5024242;28;20030;-59
2021/06/03 02:31:09;;;;;;;6.15;2.00;;;17.30;99.80;;;;;;5018933;28;20402;-59
2021/06/03 02:33:35;;;;;;;4.88;2.00;;;17.20;99.90;;;;;;5025235;28;20160;-59
2021/06/03 02:36:01;;;;;;;2.78;1.90;;;17.20;99.60;;;;;;5022200;28;20053;-59
2021/06/03 02:38:30;;;;;;;4.50;1.98;;;17.20;99.80;;;;;;5011084;28;20030;-58
2021/06/03 02:41:02;;;;;;;4.22;2.33;;;17.20;99.90;;;;;;5010311;28;20013;-57
2021/06/03 02:43:28;;;;;;;5.32;2.00;;;17.20;99.90;;;;;;5027452;28;20539;-57
2021/06/03 02:45:54;;;;;;;5.50;1.80;;;17.20;99.90;;;;;;5023941;28;20453;-59
2021/06/03 02:48:20;;;;;;;4.93;2.20;;;17.20;99.90;;;;;;5019706;28;20558;-59
2021/06/03 02:50:46;;;;;;;2.35;1.80;;;17.20;99.90;;;;;;5013483;28;20046;-60
2021/06/03 02:53:12;;;;;;;6.18;1.98;;;17.20;99.90;;;;;;5013003;28;20026;-56
2021/06/03 02:55:39;;;;;;;3.72;2.20;;;17.20;99.90;;;;;;5014353;28;20025;-60
2021/06/03 02:58:05;;;;;;;3.90;2.05;;;17.20;99.90;;;;;;5025219;28;20075;-56
2021/06/03 03:00:33;;;;;;;4.93;2.13;;;17.20;99.90;;;;;;5018165;28;20018;-56
2021/06/03 03:03:00;;;;;;;3.75;2.10;;;17.30;99.90;;;;;;5013360;28;20531;-58
2021/06/03 03:05:26;;;;;;;4.32;2.10;;;17.30;99.70;;;;;;5015940;28;20526;-56
2021/06/03 03:07:52;;;;;;;2.15;1.55;;;17.40;99.50;;;;;;5018008;28;20033;-56
2021/06/03 03:10:30;;;;;;;3.10;2.15;;;17.40;99.30;;;;;;5018240;28;20026;-57
2021/06/03 03:12:56;;;;;;;5.57;2.25;;;17.40;99.50;;;;;;5014989;28;20478;-58
2021/06/03 03:15:23;;;;;;;2.45;2.08;;;17.50;99.20;;;;;;5015422;28;20030;-56
2021/06/03 03:17:51;;;;;;;6.13;1.85;;;17.50;99.90;;;;;;5019012;28;20030;-56
2021/06/03 03:20:18;;;;;;;3.28;1.85;;;17.50;99.80;;;;;;5021311;28;20013;-56
2021/06/03 03:22:45;;;;;;;6.25;1.90;;;17.40;99.40;;;;;;5011779;28;20666;-57
2021/06/03 03:25:12;;;;;;;2.22;1.65;;;17.40;99.90;;;;;;5017013;28;20030;-57
2021/06/03 03:27:39;;;;;;;2.40;1.80;;;17.40;99.40;;;;;;5011230;28;20022;-65
2021/06/03 03:30:06;;;;;;;3.08;1.95;;;17.40;99.70;;;;;;5014449;28;21444;-57
2021/06/03 03:32:32;;;;;;;3.78;2.03;;;17.40;99.20;;;;;;5022710;28;20121;-56
2021/06/03 03:34:59;;;;;;;4.15;1.90;;;17.40;99.20;;;;;;5015749;28;20101;-57
2021/06/03 03:37:25;;;;;;;4.25;2.33;;;17.50;99.10;;;;;;5014946;28;20125;-58
2021/06/03 03:39:50;;;;;;;4.78;2.10;;;17.50;99.20;;;;;;5019809;28;20646;-57
2021/06/03 03:42:16;;;;;;;2.70;1.90;;;17.50;99.10;;;;;;5012578;28;20030;-58
2021/06/03 03:44:42;;;;;;;2.50;1.77;;;17.50;99.90;;;;;;5011180;28;20113;-59
2021/06/03 03:47:08;;;;;;;3.97;1.98;;;17.50;99.10;;;;;;5012577;28;20475;-58
2021/06/03 03:49:33;;;;;;;4.72;2.15;;;17.50;99.60;;;;;;5013028;28;20030;-58
2021/06/03 03:52:00;;;;;;;4.00;2.00;;;17.60;99.30;;;;;;5017829;28;20025;-59
2021/06/03 03:54:26;;;;;;;3.50;2.03;;;17.70;99.60;;;;;;5020617;28;20064;-55
2021/06/03 03:56:52;;;;;;;3.63;2.05;;;17.70;99.60;;;;;;5015379;28;20030;-58
2021/06/03 03:59:18;;;;;;;4.82;2.00;;;17.70;99.90;;;;;;5018878;28;20030;-59
2021/06/03 04:01:45;;;;;;;7.03;2.63;;;17.70;99.90;;;;;;5011907;28;20038;-56
2021/06/03 04:05:00;;;;;;;3.45;1.77;;;17.70;99.90;;;;;;5023561;28;20073;-58
2021/06/03 04:07:26;;;;;;;1.95;1.40;;;17.80;99.50;;;;;;5005996;28;20115;-58
2021/06/03 04:09:51;;;;;;;2.67;1.48;;;17.80;98.80;;;;;;5009836;28;20030;-56
2021/06/03 04:12:17;;;;;;;4.20;2.10;;;17.80;99.80;;;;;;5005668;28;20030;-58
2021/06/03 04:14:43;;;;;;;3.33;2.00;;;17.80;99.90;;;;;;5015374;28;20026;-57
2021/06/03 04:17:08;;;;;;;3.60;1.80;;;17.80;99.90;;;;;;5015252;28;20503;-56
2021/06/03 04:19:34;;;;;;;2.78;1.90;;;17.80;99.90;;;;;;5016629;28;20072;-58
2021/06/03 04:22:01;;;;;;;2.72;1.88;;;18.00;99.40;;;;;;5015654;28;20068;-58
2021/06/03 04:24:27;;;;;;;6.47;2.03;;;18.20;98.40;;;;;;5018460;28;20045;-58
2021/06/03 04:26:53;;;;;;;5.80;2.00;;;18.50;97.90;;;;;;5019929;28;20037;-61
2021/06/03 04:29:18;;;;;;;3.15;1.80;;;19.00;97.20;;;;;;5024164;28;20448;-55
2021/06/03 04:31:44;;;;;;;2.45;2.00;;;19.60;95.50;;;;;;5014771;28;20034;-56
2021/06/03 04:34:10;;;;;;;8.57;2.15;;;19.90;94.90;;;;;;5017032;28;20018;-56
2021/06/03 04:36:35;;;;;;;5.15;2.03;;;20.70;95.10;;;;;;5010156;28;20395;-57
2021/06/03 04:39:01;;;;;;;2.15;1.58;;;22.10;92.90;;;;;;5014627;28;20399;-61
2021/06/03 04:41:26;;;;;;;3.08;1.70;;;23.20;89.40;;;;;;5020379;28;20045;-57
2021/06/03 04:43:52;;;;;;;5.07;1.92;;;23.90;84.10;;;;;;5022130;28;20109;-57
2021/06/03 04:46:17;;;;;;;2.97;1.67;;;24.60;81.90;;;;;;5022393;28;20033;-55
2021/06/03 04:48:43;;;;;;;5.05;1.90;;;25.10;78.10;;;;;;5013346;28;20053;-58
2021/06/03 04:51:08;;;;;;;1.83;1.30;;;25.70;73.30;;;;;;5020142;28;20068;-57
2021/06/03 04:53:34;;;;;;;1.90;1.38;;;26.40;72.50;;;;;;5021815;28;20491;-55
2021/06/03 04:56:00;;;;;;;2.63;1.52;;;27.50;68.40;;;;;;5007709;28;20018;-58
2021/06/03 04:58:27;;;;;;;3.17;1.60;;;27.10;66.70;;;;;;5011295;28;20026;-59
2021/06/03 05:00:54;;;;;;;5.65;1.60;;;27.00;64.40;;;;;;5019930;28;20597;-55
2021/06/03 05:03:20;;;;;;;3.92;1.60;;;26.20;66.30;;;;;;5022883;28;20079;-58
2021/06/03 05:05:46;;;;;;;4.40;1.63;;;25.70;66.50;;;;;;5013661;28;20048;-58
2021/06/03 05:08:12;;;;;;;4.78;1.60;;;25.00;71.60;;;;;;5011855;28;20030;-52
2021/06/03 05:10:38;;;;;;;2.65;1.35;;;25.50;70.10;;;;;;5014149;28;20034;-56
2021/06/03 05:13:06;;;;;;;1.70;1.35;;;26.10;68.70;;;;;;5021345;28;20036;-56
2021/06/03 05:15:32;;;;;;;2.20;1.40;;;27.20;65.80;;;;;;5013757;28;20022;-59
2021/06/03 05:17:58;;;;;;;2.20;1.45;;;28.30;64.20;;;;;;5014375;28;20509;-57
2021/06/03 05:20:26;;;;;;;3.42;1.80;;;28.50;60.80;;;;;;5022909;28;20116;-60
2021/06/03 05:22:53;;;;;;;3.03;1.45;;;28.80;59.80;;;;;;5018282;28;20017;-59
2021/06/03 05:25:22;;;;;;;1.80;1.33;;;29.30;59.60;;;;;;5011799;28;20701;-59
2021/06/03 05:27:48;;;;;;;2.90;1.52;;;30.90;57.20;;;;;;5021532;28;20104;-58
2021/06/03 05:30:16;;;;;;;2.03;1.35;;;31.10;56.10;;;;;;5018912;28;20062;-58
2021/06/03 05:32:42;;;;;;;2.05;1.27;;;31.50;55.10;;;;;;5027648;28;20033;-58
2021/06/03 05:35:11;;;;;;;2.63;1.45;;;33.00;52.00;;;;;;5009174;28;20020;-59
2021/06/03 05:37:37;;;;;;;2.95;1.60;;;33.90;49.90;;;;;;5011499;28;20021;-58
2021/06/03 05:40:05;;;;;;;2.67;1.65;;;34.30;49.60;;;;;;5022896;28;20026;-58
2021/06/03 05:42:31;;;;;;;2.40;1.45;;;34.70;48.20;;;;;;5016023;28;20038;-58
2021/06/03 05:44:57;;;;;;;4.40;1.65;;;34.60;47.00;;;;;;5016033;28;20021;-59
2021/06/03 05:47:22;;;;;;;4.35;1.52;;;32.80;48.80;;;;;;5017741;28;20052;-58
2021/06/03 05:49:48;;;;;;;2.03;1.60;;;31.00;52.00;;;;;;5020715;28;20029;-56
2021/06/03 05:52:14;;;;;;;2.50;1.60;;;29.40;54.60;;;;;;5022267;28;20056;-57
2021/06/03 05:54:39;;;;;;;2.25;1.70;;;28.40;57.20;;;;;;5018341;28;20010;-57
2021/06/03 05:57:05;;;;;;;4.35;1.60;;;27.10;61.00;;;;;;5005200;28;20053;-57
2021/06/03 05:59:30;;;;;;;3.33;1.80;;;26.30;62.70;;;;;;5018521;28;20041;-57
2021/06/03 06:02:02;;;;;;;4.00;1.73;;;25.60;64.30;;;;;;5020043;28;20050;-58
2021/06/03 06:06:57;;;;;;;3.75;1.90;;;25.10;66.90;;;;;;5013452;28;20093;-58
2021/06/03 06:09:23;;;;;;;3.83;1.90;;;24.90;66.90;;;;;;5020091;28;20117;-56
2021/06/03 06:11:48;;;;;;;5.28;2.30;;;24.50;67.90;;;;;;5014605;28;20092;-58
2021/06/03 06:14:14;;;;;;;4.50;2.05;;;24.10;69.80;;;;;;5014208;28;20018;-57
2021/06/03 06:16:40;;;;;;;7.60;2.10;;;23.80;70.80;;;;;;5013244;28;20042;-56
2021/06/03 06:19:08;;;;;;;3.40;1.92;;;23.70;72.10;;;;;;5021648;28;20088;-57
2021/06/03 06:21:34;;;;;;;2.50;1.98;;;23.60;72.70;;;;;;5021696;28;20109;-57
2021/06/03 06:24:01;;;;;;;2.95;2.63;;;23.50;74.00;;;;;;5025432;28;20441;-56
2021/06/03 06:26:27;;;;;;;2.90;2.17;;;23.30;75.10;;;;;;5012952;28;20076;-56
2021/06/03 06:28:54;;;;;;;3.92;1.77;;;23.20;76.00;;;;;;5011015;28;20615;-56
2021/06/03 06:31:20;;;;;;;3.75;2.53;;;23.00;77.30;;;;;;5023482;28;20475;-57
2021/06/03 06:33:47;;;;;;;5.15;2.40;;;22.70;78.20;;;;;;5023928;28;20033;-59
2021/06/03 06:36:14;;;;;;;2.35;1.98;;;22.70;80.60;;;;;;5011942;28;20037;-58
2021/06/03 06:38:40;;;;;;;4.07;2.72;;;22.70;81.60;;;;;;5014199;28;20660;-56
2021/06/03 06:41:07;;;;;;;5.75;2.60;;;22.60;82.60;;;;;;5022028;28;20048;-61
2021/06/03 06:43:34;;;;;;;6.30;2.30;;;22.80;82.60;;;;;;5015852;28;20111;-57
2021/06/03 06:46:01;;;;;;;3.60;2.13;;;22.90;83.80;;;;;;5025087;28;20089;-56
2021/06/03 06:48:27;;;;;;;6.20;1.80;;;22.90;81.80;;;;;;5028314;28;20034;-57
2021/06/03 06:50:52;;;;;;;3.97;2.15;;;23.10;82.40;;;;;;5026770;28;20018;-55
2021/06/03 06:53:19;;;;;;;2.45;2.05;;;23.10;82.50;;;;;;5019317;28;20090;-54
2021/06/03 06:55:46;;;;;;;4.40;2.22;;;23.40;82.60;;;;;;5015602;28;20510;-58
2021/06/03 06:58:12;;;;;;;2.35;2.03;;;23.50;82.50;;;;;;5013705;28;20029;-56
2021/06/03 07:00:39;;;;;;;4.32;2.80;;;23.60;82.20;;;;;;4994121;28;20046;-55
2021/06/03 07:03:10;;;;;;;4.25;2.20;;;23.70;83.10;;;;;;5016048;28;20021;-55
2021/06/03 07:05:37;;;;;;;2.47;2.05;;;24.00;81.10;;;;;;5018198;28;20034;-56
2021/06/03 07:08:02;;;;;;;3.60;2.00;;;24.40;80.30;;;;;;5016044;28;20289;-58
2021/06/03 07:10:28;;;;;;;4.05;1.60;;;24.70;81.60;;;;;;5014253;28;20038;-56
2021/06/03 07:12:54;;;;;;;4.40;1.70;;;25.30;79.30;;;;;;5013023;28;20034;-56
2021/06/03 07:15:20;;;;;;;3.75;1.90;;;25.60;75.80;;;;;;5013756;28;20026;-57
2021/06/03 07:17:46;;;;;;;4.68;2.13;;;25.90;76.20;;;;;;5017689;28;20029;-58
2021/06/03 07:20:15;;;;;;;2.92;1.73;;;26.70;75.20;;;;;;5015183;28;20029;-57
2021/06/03 07:22:44;;;;;;;5.55;1.70;;;28.70;69.70;;;;;;5016045;28;20046;-57
2021/06/03 07:25:11;;;;;;;2.97;1.70;;;30.00;65.40;;;;;;5013594;28;20038;-59
2021/06/03 07:27:38;;;;;;;4.22;1.60;;;31.90;61.30;;;;;;5013868;28;20091;-58
2021/06/03 07:30:07;;;;;;;2.35;1.50;;;33.40;58.00;;;;;;5020294;28;20037;-59
2021/06/03 07:32:34;;;;;;;2.03;1.40;;;34.40;54.80;;;;;;5020766;28;20057;-58
2021/06/03 07:35:00;;;;;;;3.55;1.23;;;34.50;53.90;;;;;;5025453;28;20502;-58
2021/06/03 07:37:28;;;;;;;3.25;1.38;;;34.70;52.40;;;;;;5019900;28;20171;-59
2021/06/03 07:39:53;;;;;;;3.50;1.65;;;34.60;52.40;;;;;;5011855;28;20064;-58
2021/06/03 07:42:19;;;;;;;1.67;1.40;;;35.00;52.10;;;;;;5014245;28;20033;-60
2021/06/03 07:44:46;;;;;;;2.70;1.73;;;35.10;52.10;;;;;;5023928;28;20423;-59
2021/06/03 07:47:12;;;;;;;8.15;1.60;;;35.70;52.00;;;;;;5017608;28;20048;-60
2021/06/03 07:49:37;;;;;;;4.38;1.60;;;35.00;50.70;;;;;;5021294;28;20026;-60
2021/06/03 07:52:04;;;;;;;2.55;1.42;;;35.20;50.20;;;;;;5017523;28;20414;-59
2021/06/03 07:54:30;;;;;;;7.85;1.60;;;35.20;50.40;;;;;;5012496;28;20045;-59
2021/06/03 07:56:56;;;;;;;2.90;1.40;;;35.70;49.50;;;;;;5001215;28;20200;-59
2021/06/03 07:59:22;;;;;;;2.95;1.80;;;34.80;51.00;;;;;;5000129;28;20029;-61
2021/06/03 08:01:48;;;;;;;2.10;1.60;;;33.60;52.50;;;;;;5008385;28;20040;-57
2021/06/03 08:04:13;;;;;;;3.65;1.52;;;32.40;53.50;;;;;;5005109;28;20034;-59
2021/06/03 08:06:39;;;;;;;2.67;1.80;;;31.40;56.00;;;;;;5012305;28;20034;-58
2021/06/03 08:09:05;;;;;;;2.17;1.73;;;31.20;57.50;;;;;;5023741;28;20021;-57
2021/06/03 08:11:31;;;;;;;3.10;1.70;;;30.90;57.80;;;;;;5013013;28;20045;-58
2021/06/03 08:13:56;;;;;;;4.78;1.83;;;30.70;58.60;;;;;;5026783;28;20036;-57
2021/06/03 08:16:22;;;;;;;4.47;1.92;;;30.70;57.40;;;;;;5015365;28;20576;-58
2021/06/03 08:18:47;;;;;;;4.32;1.70;;;30.10;59.80;;;;;;5026997;28;20042;-59
2021/06/03 08:21:13;;;;;;;3.25;1.92;;;30.10;59.70;;;;;;5017376;28;20582;-57
2021/06/03 08:23:39;;;;;;;3.90;1.67;;;29.90;60.70;;;;;;5012733;28;20038;-60
2021/06/03 08:26:05;;;;;;;3.35;1.60;;;29.90;60.00;;;;;;5019436;28;20096;-58
2021/06/03 08:28:31;;;;;;;5.18;1.90;;;29.80;59.50;;;;;;5013149;28;20041;-59
2021/06/03 08:30:58;;;;;;;2.60;1.83;;;29.50;61.80;;;;;;5022146;28;20033;-60
2021/06/03 08:33:25;;;;;;;4.28;2.00;;;29.40;61.30;;;;;;5018695;28;20034;-59
2021/06/03 08:35:51;;;;;;;3.03;1.58;;;30.30;60.80;;;;;;5018088;28;20030;-59
2021/06/03 08:38:17;;;;;;;3.95;1.88;;;31.60;57.20;;;;;;5011060;28;20579;-59
2021/06/03 08:40:56;;;;;;;1.80;1.42;;;32.90;55.30;;;;;;5019269;28;20061;-59
2021/06/03 08:43:27;;;;;;;4.28;1.73;;;33.80;54.40;;;;;;5022388;28;20025;-60
2021/06/03 08:45:53;;;;;;;2.58;1.58;;;34.00;52.10;;;;;;5019711;28;20029;-58
2021/06/03 08:48:19;;;;;;;3.10;1.70;;;32.90;53.10;;;;;;5018949;28;20033;-60
2021/06/03 08:50:51;;;;;;;2.90;2.28;;;32.70;55.50;;;;;;5012154;28;20033;-59
2021/06/03 08:53:17;;;;;;;4.00;2.10;;;32.10;54.90;;;;;;5012264;28;20038;-59
2021/06/03 08:58:29;;;;;;;3.70;1.88;;;31.60;56.00;;;;;;5010680;28;20056;-59
2021/06/03 09:00:56;;;;;;;2.85;1.90;;;30.30;57.50;;;;;;5014193;28;20084;-58
2021/06/03 09:03:24;;;;;;;2.20;1.65;;;30.20;58.10;;;;;;5022004;28;20430;-58
2021/06/03 09:05:50;;;;;;;4.97;1.88;;;29.50;59.90;;;;;;5003522;28;20057;-57
2021/06/03 09:08:22;;;;;;;4.40;2.30;;;30.10;60.00;;;;;;5017860;28;20036;-59
2021/06/03 09:10:53;;;;;;;3.05;2.10;;;30.60;59.10;;;;;;5016346;28;20105;-58
2021/06/03 09:13:31;;;;;;;2.45;1.70;;;30.00;60.50;;;;;;5018076;28;20029;-57
2021/06/03 09:16:11;;;;;;;3.38;1.90;;;29.60;60.40;;;;;;5009317;28;20345;-58
2021/06/03 09:18:39;;;;;;;1.98;1.55;;;30.40;60.10;;;;;;5010935;28;20021;-59
2021/06/03 09:21:18;;;;;;;2.63;1.80;;;31.20;58.70;;;;;;5012679;28;20032;-59
2021/06/03 09:23:56;;;;;;;4.13;1.80;;;31.20;58.10;;;;;;5016062;28;20069;-59
2021/06/03 09:26:23;;;;;;;5.32;1.95;;;31.70;58.10;;;;;;5013507;28;20025;-61
2021/06/03 09:28:53;;;;;;;3.17;2.10;;;32.90;55.90;;;;;;5013602;28;20640;-60
2021/06/03 09:31:23;;;;;;;3.13;1.65;;;33.30;55.30;;;;;;5018301;28;20033;-61
2021/06/03 09:33:54;;;;;;;3.75;1.55;;;32.70;55.80;;;;;;5017938;28;20072;-60
2021/06/03 09:36:30;;;;;;;2.72;2.00;;;32.10;56.00;;;;;;5016846;28;20494;-60
2021/06/03 09:38:57;;;;;;;5.03;2.30;;;31.30;57.30;;;;;;5010079;28;20037;-58
2021/06/03 09:41:24;;;;;;;6.43;1.90;;;30.60;58.40;;;;;;5014424;28;20088;-60
2021/06/03 09:44:22;;;;;;;4.80;2.10;;;30.00;59.80;;;;;;5022040;28;20076;-57
2021/06/03 09:46:51;;;;;;;4.80;2.40;;;30.00;60.00;;;;;;5010736;28;20507;-56
2021/06/03 09:49:25;;;;;;;4.10;2.20;;;29.20;62.70;;;;;;5008821;28;20040;-57
2021/06/03 09:51:53;;;;;;;3.58;2.45;;;28.60;63.20;;;;;;5016330;28;20041;-58
2021/06/03 09:54:21;;;;;;;5.75;2.72;;;28.20;65.80;;;;;;5018426;28;20046;-59
2021/06/03 09:56:51;;;;;;;3.30;2.10;;;28.00;66.80;;;;;;5018567;28;20557;-60
2021/06/03 09:59:16;;;;;;;4.47;2.13;;;27.70;68.20;;;;;;5012030;28;20026;-60
2021/06/03 10:01:46;;;;;;;3.35;2.03;;;27.60;68.20;;;;;;5010792;28;20026;-57
2021/06/03 10:04:16;;;;;;;4.38;2.30;;;27.40;69.30;;;;;;5008158;28;20034;-57
2021/06/03 10:07:08;;;;;;;4.70;2.47;;;27.00;71.40;;;;;;5002883;28;20030;-58
2021/06/03 10:09:47;;;;;;;7.57;3.10;;;26.50;75.00;;;;;;5003769;28;20033;-58
2021/06/03 10:12:22;;;;;;;7.53;3.38;;;26.20;77.70;;;;;;4997715;28;20046;-57
2021/06/03 10:14:49;;;;;;;5.95;3.22;;;26.00;81.90;;;;;;5015249;28;20080;-58
2021/06/03 10:17:28;;;;;;;8.30;3.22;;;25.90;90.30;;;;;;5015849;28;20026;-59
2021/06/03 10:19:57;;;;;;;5.05;3.20;;;26.00;92.00;;;;;;5009387;28;20644;-60
2021/06/03 10:22:26;;;;;;;10.73;3.30;;;25.90;91.20;;;;;;5007533;28;20033;-63
2021/06/03 10:25:03;;;;;;;6.95;3.10;;;25.80;92.60;;;;;;5001062;28;20119;-58
2021/06/03 10:27:38;;;;;;;7.38;3.42;;;25.90;93.30;;;;;;5008124;28;20055;-56
2021/06/03 10:30:15;;;;;;;6.60;3.00;;;25.70;93.80;;;;;;5010051;28;20030;-56
2021/06/03 10:32:43;;;;;;;7.35;3.78;;;25.50;94.40;;;;;;5007222;28;20025;-57
2021/06/03 10:35:13;;;;;;;6.78;3.17;;;25.20;94.00;;;;;;5010289;28;20034;-59
2021/06/03 10:37:39;;;;;;;5.95;3.45;;;24.90;94.40;;;;;;5009646;28;20097;-58
2021/06/03 10:40:08;;;;;;;10.20;3.70;;;25.00;95.70;;;;;;5012522;28;20073;-55
2021/06/03 10:42:34;;;;;;;5.85;3.50;;;24.70;94.50;;;;;;5010967;28;20034;-57
2021/06/03 10:45:04;;;;;;;9.50;3.80;;;24.50;96.00;;;;;;5013218;28;20499;-58
2021/06/03 10:47:30;;;;;;;6.28;3.88;;;24.20;96.50;;;;;;5013340;28;20042;-57
2021/06/03 10:49:59;;;;;;;6.65;3.60;;;23.90;98.10;;;;;;5009796;28;20018;-58
2021/06/03 10:52:25;;;;;;;6.53;3.90;;;23.70;99.30;;;;;;5005010;28;20088;-58
2021/06/03 10:54:54;;;;;;;8.15;4.22;;;23.60;99.90;;;;;;5008414;28;20022;-59
2021/06/03 10:57:44;;;;;;;11.00;4.47;;;23.40;99.90;;;;;;5014465;28;20060;-59
2021/06/03 11:00:33;;;;;;;5.47;4.05;;;23.30;99.90;;;;;;5011315;28;20021;-58
2021/06/03 11:03:26;;;;;;;10.73;3.67;;;23.10;99.90;;;;;;5005899;28;20030;-57
2021/06/03 11:06:04;;;;;;;5.55;3.85;;;22.90;99.90;;;;;;5014885;28;20468;-55
2021/06/03 11:08:50;;;;;;;7.88;3.85;;;22.60;99.90;;;;;;5017995;28;20037;-58
2021/06/03 11:11:15;;;;;;;10.48;4.68;;;22.50;99.90;;;;;;5013353;28;20026;-56
2021/06/03 11:13:46;;;;;;;7.05;3.75;;;22.50;99.90;;;;;;5006524;28;20038;-59
2021/06/03 11:16:19;;;;;;;5.63;3.22;;;22.50;99.90;;;;;;5013367;28;20404;-56
2021/06/03 11:18:45;;;;;;;7.45;3.88;;;22.50;99.90;;;;;;5017574;28;20033;-59
2021/06/03 11:21:36;;;;;;;4.60;3.80;;;22.50;99.90;;;;;;5011636;28;20021;-57
2021/06/03 11:24:05;;;;;;;6.07;3.90;;;22.60;99.90;;;;;;5000796;28;20419;-60
2021/06/03 11:26:37;;;;;;;13.68;5.07;;;22.40;99.90;;;;;;5013812;28;20026;-53
2021/06/03 11:29:14;;;;;;;5.45;3.90;;;22.60;99.90;;;;;;5017599;28;20499;-56
2021/06/03 11:31:44;;;;;;;6.45;4.05;;;22.70;99.90;;;;;;5014264;28;20193;-55
2021/06/03 11:34:11;;;;;;;8.48;5.05;;;23.00;99.90;;;;;;5019558;28;20401;-57
2021/06/03 11:36:39;;;;;;;5.82;3.95;;;22.90;99.90;;;;;;5010963;28;20107;-59
2021/06/03 11:39:26;;;;;;;7.63;3.33;;;23.00;99.90;;;;;;5023070;28;20018;-57
2021/06/03 11:41:51;;;;;;;6.25;3.90;;;23.20;99.90;;;;;;5014479;28;20094;-56
2021/06/03 11:44:17;;;;;;;7.40;3.95;;;23.40;99.90;;;;;;5002670;28;20069;-58
2021/06/03 11:46:54;;;;;;;5.90;3.45;;;23.40;99.90;;;;;;5002428;28;20105;-57
2021/06/03 11:49:41;;;;;;;4.88;3.78;;;23.50;99.90;;;;;;5003673;28;20049;-58
2021/06/03 11:52:17;;;;;;;5.28;3.80;;;23.60;99.90;;;;;;5007152;28;20076;-57
2021/06/03 11:54:53;;;;;;;5.70;3.90;;;23.80;99.90;;;;;;5018517;28;20024;-59
2021/06/03 11:57:21;;;;;;;6.45;3.65;;;24.10;99.90;;;;;;5016729;28;20033;-59
2021/06/03 12:00:16;;;;;;;5.63;3.35;;;24.30;99.90;;;;;;5015567;28;20030;-58
2021/06/03 12:02:44;;;;;;;5.32;3.30;;;24.40;99.90;;;;;;5005299;28;20125;-58
2021/06/03 12:07:54;;;;;;;7.60;3.55;;;25.20;99.90;;;;;;5008855;28;20442;-61
2021/06/03 12:10:41;;;;;;;4.68;3.35;;;25.10;99.90;;;;;;5007204;28;20032;-58
2021/06/03 12:13:17;;;;;;;7.57;3.15;;;25.60;99.90;;;;;;5015264;28;20039;-59
2021/06/03 12:15:43;;;;;;;11.20;3.15;;;25.70;99.90;;;;;;5006915;28;20137;-59
2021/06/03 12:18:08;;;;;;;6.10;3.30;;;25.50;99.90;;;;;;5010845;28;20093;-58
2021/06/03 12:20:34;;;;;;;4.35;3.15;;;25.50;99.90;;;;;;5017883;28;20038;-60
2021/06/03 12:23:04;;;;;;;6.07;3.00;;;25.70;99.90;;;;;;5011756;28;20026;-58
2021/06/03 12:25:37;;;;;;;5.78;3.13;;;25.70;99.10;;;;;;5005736;28;20032;-59
2021/06/03 12:28:05;;;;;;;5.80;3.60;;;25.80;99.30;;;;;;5003027;28;20026;-58
2021/06/03 12:30:34;;;;;;;6.20;3.28;;;25.80;98.90;;;;;;5014719;28;20026;-60
2021/06/03 12:33:16;;;;;;;4.10;2.85;;;25.80;99.90;;;;;;5005075;28;20048;-57
2021/06/03 12:35:46;;;;;;;4.70;2.93;;;26.20;99.90;;;;;;5005984;28;20022;-60
2021/06/03 12:38:26;;;;;;;5.00;3.03;;;26.30;99.70;;;;;;5008082;28;20097;-59
2021/06/03 12:40:52;;;;;;;6.97;2.80;;;26.40;99.30;;;;;;5016103;28;20022;-58
2021/06/03 12:43:18;;;;;;;5.32;3.10;;;26.00;99.90;;;;;;5010360;28;20438;-58
2021/06/03 12:45:45;;;;;;;5.45;2.85;;;25.70;99.40;;;;;;5011714;28;20092;-60
2021/06/03 12:48:13;;;;;;;5.80;3.20;;;25.70;99.90;;;;;;5008388;28;20033;-59
2021/06/03 12:50:48;;;;;;;5.25;2.92;;;25.60;99.90;;;;;;5009531;28;20041;-58
2021/06/03 12:53:17;;;;;;;5.55;2.78;;;25.80;99.90;;;;;;5016274;28;20038;-58
2021/06/03 12:55:44;;;;;;;3.78;2.80;;;25.90;99.00;;;;;;5008633;28;20022;-59
2021/06/03 12:58:13;;;;;;;3.55;2.67;;;26.00;99.90;;;;;;5012963;28;20022;-61
2021/06/03 13:00:41;;;;;;;3.30;2.13;;;26.20;99.20;;;;;;5008586;28;20030;-59